Time;durP1;ratioP1;P1;durP2;ratioP2;P2;SDS_P1;SDS_P2;PMS_P1;PMS_P2;Temp;Humidity;BMP_temperature;BMP_pressure;BME280_temperature;BME280_humidity;BME280_pressure;Samples;Min_cycle;Max_cycle;Signal;HPM_P1;HPM_P2
2023/08/26 00:00:42;;;;;;;27.07;20.77;;;19.80;99.90;19.30;99645;;;;561436;251;23120;-77
2023/08/26 00:03:10;;;;;;;24.63;20.80;;;19.80;99.90;19.30;99634;;;;561312;251;24159;-77
2023/08/26 00:05:38;;;;;;;24.37;19.50;;;19.80;99.90;19.30;99641;;;;561302;251;24098;-79
2023/08/26 00:08:06;;;;;;;28.50;19.70;;;19.80;99.90;19.20;99632;;;;561386;251;23174;-76
2023/08/26 00:10:34;;;;;;;31.35;26.92;;;19.80;99.90;19.20;99638;;;;556452;251;35381;-76
2023/08/26 00:13:02;;;;;;;24.50;22.00;;;19.80;99.90;19.20;99641;;;;561363;251;24113;-76
2023/08/26 00:15:29;;;;;;;24.23;19.47;;;19.70;99.90;19.20;99643;;;;561310;251;24151;-78
2023/08/26 00:17:58;;;;;;;29.63;21.77;;;19.70;99.90;19.20;99643;;;;561441;251;23128;-78
2023/08/26 00:20:27;;;;;;;27.70;20.03;;;19.70;99.90;19.20;99637;;;;561875;250;23153;-77
2023/08/26 00:22:55;;;;;;;25.50;21.73;;;19.70;99.90;19.20;99632;;;;561910;251;24156;-79
2023/08/26 00:25:23;;;;;;;29.50;20.70;;;19.60;99.90;19.10;99641;;;;571428;248;24144;-78
2023/08/26 00:27:51;;;;;;;32.43;23.33;;;19.60;99.90;19.10;99652;;;;562009;251;23153;-77
2023/08/26 00:30:20;;;;;;;31.37;23.40;;;19.60;99.90;19.10;99643;;;;561755;251;25213;-76
2023/08/26 00:32:49;;;;;;;27.03;23.43;;;19.70;99.90;19.10;99641;;;;561806;251;23158;-77
2023/08/26 00:35:17;;;;;;;31.23;24.57;;;19.60;99.90;19.10;99638;;;;561809;251;23198;-79
2023/08/26 00:37:45;;;;;;;33.67;24.10;;;19.60;99.90;19.10;99625;;;;561747;251;23111;-76
2023/08/26 00:40:12;;;;;;;36.33;24.97;;;19.60;99.90;19.10;99626;;;;561618;251;23137;-77
2023/08/26 00:42:40;;;;;;;33.13;24.43;;;19.60;99.90;19.00;99625;;;;561734;251;24216;-76
2023/08/26 00:45:12;;;;;;;34.40;24.20;;;19.50;99.90;19.00;99631;;;;561696;251;24151;-81
2023/08/26 00:47:39;;;;;;;28.40;23.20;;;19.50;99.90;19.00;99631;;;;561112;251;24161;-76
2023/08/26 00:50:07;;;;;;;30.53;21.83;;;19.50;99.90;18.90;99641;;;;562034;251;24104;-77
2023/08/26 00:52:35;;;;;;;31.97;23.10;;;19.50;99.90;18.90;99630;;;;570807;251;23136;-77
2023/08/26 00:55:03;;;;;;;30.00;22.50;;;19.40;99.90;18.80;99632;;;;571150;247;23128;-79
2023/08/26 00:57:34;;;;;;;30.93;23.93;;;19.30;99.90;18.80;99627;;;;570250;251;23184;-77
2023/08/26 00:59:58;;;;;;;39.00;31.52;;;19.30;99.90;18.70;99633;;;;565285;251;35420;-77
2023/08/26 01:02:27;;;;;;;32.20;25.40;;;19.20;99.90;18.70;99640;;;;560962;251;24104;-78
2023/08/26 01:04:59;;;;;;;36.57;23.60;;;19.20;99.90;18.60;99632;;;;561033;251;24122;-77
2023/08/26 01:07:24;;;;;;;29.33;23.47;;;19.10;99.90;18.50;99633;;;;559462;251;23132;-78
2023/08/26 01:09:53;;;;;;;27.20;21.33;;;19.00;99.90;18.50;99640;;;;560915;251;24180;-77
2023/08/26 01:12:26;;;;;;;29.93;22.20;;;19.00;99.90;18.40;99636;;;;560908;251;23128;-75
2023/08/26 01:14:59;;;;;;;30.30;22.73;;;19.00;99.90;18.40;99630;;;;561231;251;25165;-79
2023/08/26 01:17:30;;;;;;;31.00;22.33;;;18.90;99.90;18.30;99630;;;;560392;251;24173;-78
2023/08/26 01:19:55;;;;;;;37.33;25.30;;;18.90;99.90;18.30;99633;;;;559433;251;24171;-77
2023/08/26 01:22:24;;;;;;;38.40;24.47;;;18.80;99.90;18.30;99638;;;;563878;251;24130;-81
2023/08/26 01:24:51;;;;;;;34.83;23.73;;;18.80;99.90;18.20;99637;;;;564046;251;24194;-82
2023/08/26 01:27:19;;;;;;;32.47;24.07;;;18.80;99.90;18.20;99635;;;;561392;251;24116;-78
2023/08/26 01:29:47;;;;;;;33.50;23.37;;;18.70;99.90;18.10;99641;;;;568699;247;24140;-77
2023/08/26 01:32:42;;;;;;;31.97;24.20;;;18.70;99.90;18.10;99634;;;;571342;249;24217;-82
2023/08/26 01:35:10;;;;;;;32.23;24.07;;;18.60;99.90;18.00;99638;;;;565579;250;24170;-84
2023/08/26 01:37:38;;;;;;;28.57;21.13;;;18.60;99.90;18.00;99640;;;;572941;246;24123;-78
2023/08/26 01:40:06;;;;;;;29.33;23.23;;;18.50;99.90;17.90;99644;;;;562325;251;24096;-84
2023/08/26 01:42:34;;;;;;;33.77;23.63;;;18.50;99.90;17.90;99644;;;;571000;251;24182;-83
2023/08/26 01:45:05;;;;;;;30.40;24.50;;;18.40;99.90;17.90;99647;;;;581528;246;24151;-77
2023/08/26 01:47:30;;;;;;;32.90;22.43;;;18.40;99.90;17.80;99653;;;;561682;251;24163;-78
2023/08/26 01:49:58;;;;;;;38.07;25.73;;;18.40;99.90;17.80;99654;;;;581658;246;24085;-78
2023/08/26 01:52:28;;;;;;;32.20;25.37;;;18.30;99.90;17.80;99659;;;;578699;247;23126;-78
2023/08/26 01:54:53;;;;;;;37.33;25.60;;;18.30;99.90;17.70;99661;;;;574213;247;24105;-79
2023/08/26 01:57:21;;;;;;;39.20;26.30;;;18.30;99.90;17.70;99659;;;;579189;247;24182;-77
2023/08/26 01:59:49;;;;;;;31.57;25.33;;;18.20;99.90;17.70;99652;;;;578673;247;24105;-80
2023/08/26 02:02:17;;;;;;;36.90;25.30;;;18.20;99.90;17.60;99655;;;;578792;247;24110;-79
2023/08/26 02:04:45;;;;;;;32.77;24.97;;;18.10;99.90;17.60;99657;;;;578692;247;23126;-80
2023/08/26 02:07:13;;;;;;;40.67;27.80;;;18.10;99.90;17.60;99651;;;;578750;248;24097;-79
2023/08/26 02:09:41;;;;;;;36.33;26.47;;;18.10;99.90;17.50;99649;;;;578471;248;24098;-79
2023/08/26 02:12:10;;;;;;;37.67;26.90;;;18.00;99.90;17.50;99640;;;;578365;248;24182;-79
2023/08/26 02:14:38;;;;;;;44.07;29.27;;;18.00;99.90;17.50;99645;;;;578512;248;24089;-80
2023/08/26 02:17:05;;;;;;;38.87;26.53;;;18.00;99.90;17.40;99646;;;;578406;248;24159;-80
2023/08/26 02:19:34;;;;;;;38.90;29.60;;;17.90;99.90;17.40;99641;;;;578437;248;24150;-78
2023/08/26 02:22:03;;;;;;;40.70;27.67;;;17.90;99.90;17.40;99634;;;;578473;248;24147;-83
2023/08/26 02:24:31;;;;;;;36.07;27.90;;;17.90;99.90;17.40;99639;;;;578382;248;24132;-81
2023/08/26 02:27:00;;;;;;;44.43;28.83;;;17.90;99.90;17.40;99635;;;;578814;248;24100;-82
2023/08/26 02:29:27;;;;;;;42.90;30.07;;;17.90;99.90;17.30;99641;;;;578741;248;23112;-81
2023/08/26 02:31:54;;;;;;;37.47;28.37;;;17.90;99.90;17.40;99640;;;;578902;248;24094;-81
2023/08/26 02:34:22;;;;;;;44.77;28.53;;;17.90;99.90;17.40;99640;;;;578849;248;24139;-81
2023/08/26 02:36:50;;;;;;;37.00;26.70;;;17.90;99.90;17.40;99637;;;;578881;248;24074;-83
2023/08/26 02:39:18;;;;;;;40.47;26.20;;;17.90;99.90;17.40;99640;;;;578898;248;24085;-84
2023/08/26 02:41:46;;;;;;;39.57;28.30;;;17.90;99.90;17.30;99638;;;;578818;248;24130;-81
2023/08/26 02:44:14;;;;;;;37.43;27.33;;;17.80;99.90;17.30;99634;;;;568456;247;24071;-82
2023/08/26 02:46:42;;;;;;;36.30;27.20;;;17.80;99.90;17.30;99644;;;;568192;247;24110;-80
2023/08/26 02:49:10;;;;;;;39.10;28.17;;;17.80;99.90;17.20;99639;;;;568816;247;24128;-83
2023/08/26 02:51:38;;;;;;;38.50;30.30;;;17.80;99.90;17.20;99640;;;;579598;247;24079;-79
2023/08/26 02:54:06;;;;;;;40.23;29.17;;;17.70;99.90;17.20;99624;;;;579016;247;24101;-80
2023/08/26 02:56:34;;;;;;;44.43;29.87;;;17.70;99.90;17.10;99622;;;;570705;247;24103;-81
2023/08/26 02:59:02;;;;;;;43.47;30.27;;;17.70;99.90;17.10;99609;;;;578985;247;24159;-80
2023/08/26 03:01:30;;;;;;;40.67;28.67;;;17.70;99.90;17.10;99606;;;;579217;247;24076;-82
2023/08/26 03:03:57;;;;;;;40.33;30.20;;;17.60;99.90;17.10;99601;;;;578863;247;24102;-81
2023/08/26 03:06:25;;;;;;;46.60;31.23;;;17.60;99.90;17.00;99598;;;;574485;247;24084;-83
2023/08/26 03:08:53;;;;;;;45.10;30.73;;;17.60;99.90;17.00;99611;;;;579106;247;24118;-79
2023/08/26 03:11:22;;;;;;;40.23;27.93;;;17.60;99.90;17.00;99623;;;;579026;247;24129;-78
2023/08/26 03:13:52;;;;;;;41.40;28.43;;;17.60;99.90;16.90;99634;;;;578903;247;24083;-82
2023/08/26 03:16:20;;;;;;;43.00;28.33;;;17.50;99.90;16.90;99644;;;;579045;247;24083;-77
2023/08/26 03:18:48;;;;;;;41.50;30.13;;;17.50;99.90;16.90;99647;;;;578951;248;24089;-81
2023/08/26 03:21:16;;;;;;;43.53;29.93;;;17.40;99.90;16.80;99630;;;;578804;248;24098;-81
2023/08/26 03:23:44;;;;;;;40.03;30.17;;;17.40;99.90;16.80;99635;;;;578789;248;24228;-77
2023/08/26 03:26:12;;;;;;;47.20;31.40;;;17.40;99.90;16.80;99631;;;;578464;248;24099;-78
2023/08/26 03:28:43;;;;;;;45.83;31.20;;;17.30;99.90;16.80;99625;;;;578773;248;24085;-77
2023/08/26 03:31:07;;;;;;;44.37;30.40;;;17.30;99.90;16.80;99616;;;;573543;248;24102;-76
2023/08/26 03:33:35;;;;;;;45.07;28.73;;;17.30;99.90;16.80;99608;;;;578790;248;24095;-77
2023/08/26 03:36:06;;;;;;;44.73;30.50;;;17.30;99.90;16.80;99612;;;;579086;248;24116;-76
2023/08/26 03:38:32;;;;;;;41.40;30.07;;;17.30;99.90;16.80;99615;;;;570270;248;24108;-76
2023/08/26 03:40:59;;;;;;;42.97;27.27;;;17.30;99.90;16.80;99617;;;;578715;248;24144;-77
2023/08/26 03:43:27;;;;;;;39.37;27.10;;;17.30;99.90;16.80;99617;;;;578736;248;24113;-78
2023/08/26 03:45:55;;;;;;;35.30;26.30;;;17.30;99.90;16.80;99619;;;;578809;248;24086;-76
2023/08/26 03:48:23;;;;;;;38.50;26.53;;;17.30;99.90;16.70;99616;;;;578830;248;24093;-77
2023/08/26 03:50:54;;;;;;;35.60;25.70;;;17.30;99.90;16.70;99624;;;;579126;248;24107;-77
2023/08/26 03:53:22;;;;;;;39.57;26.20;;;17.30;99.90;16.70;99623;;;;572081;246;24185;-78
2023/08/26 03:55:50;;;;;;;40.67;26.53;;;17.30;99.90;16.70;99625;;;;561087;250;24165;-78
2023/08/26 03:58:18;;;;;;;40.37;28.87;;;17.20;99.90;16.70;99640;;;;581878;243;24154;-77
2023/08/26 04:00:47;;;;;;;44.03;28.60;;;17.20;99.90;16.70;99639;;;;572540;246;24136;-78
2023/08/26 04:03:16;;;;;;;42.60;28.70;;;17.30;99.90;16.70;99635;;;;560423;251;24119;-77
2023/08/26 04:05:44;;;;;;;41.43;27.90;;;17.20;99.90;16.80;99632;;;;581220;246;24106;-78
2023/08/26 04:08:12;;;;;;;44.40;28.73;;;17.30;99.90;16.80;99634;;;;560929;251;24162;-77
2023/08/26 04:10:40;;;;;;;43.83;29.63;;;17.30;99.90;16.80;99628;;;;570884;251;24103;-77
2023/08/26 04:13:20;;;;;;;37.73;27.00;;;17.30;99.90;16.90;99633;;;;580947;243;24435;-78
2023/08/26 04:15:48;;;;;;;44.70;29.27;;;17.40;99.90;16.90;99631;;;;561730;251;24112;-77
2023/08/26 04:18:16;;;;;;;46.27;29.90;;;17.40;99.90;17.00;99626;;;;570468;251;24132;-77
2023/08/26 04:20:43;;;;;;;37.90;27.43;;;17.50;99.90;17.10;99626;;;;580879;246;24110;-77
2023/08/26 04:23:11;;;;;;;40.10;27.00;;;17.50;99.90;17.10;99631;;;;560847;251;24114;-76
2023/08/26 04:25:39;;;;;;;34.43;27.03;;;17.60;99.90;17.30;99620;;;;564302;251;24147;-75
2023/08/26 04:28:07;;;;;;;39.10;29.60;;;17.80;99.90;17.40;99619;;;;579370;246;24104;-75
2023/08/26 04:30:36;;;;;;;38.30;28.97;;;17.90;99.90;17.60;99635;;;;568083;251;24125;-80
2023/08/26 04:33:06;;;;;;;45.53;32.83;;;18.10;99.90;17.80;99621;;;;569878;251;25192;-81
2023/08/26 04:35:31;;;;;;;61.00;45.78;;;18.20;99.90;17.90;99637;;;;560550;248;35437;-82
2023/08/26 04:38:03;;;;;;;50.13;35.83;;;18.40;99.90;18.00;99631;;;;561747;251;24202;-83
2023/08/26 04:40:27;;;;;;;43.60;31.07;;;18.40;99.90;18.00;99634;;;;562045;251;23129;-83
2023/08/26 04:42:55;;;;;;;40.17;30.60;;;18.50;99.90;18.00;99629;;;;581184;246;24114;-81
2023/08/26 04:45:23;;;;;;;41.73;30.70;;;18.60;99.90;18.10;99625;;;;564007;251;24127;-82
2023/08/26 04:47:55;;;;;;;43.70;31.20;;;18.60;99.90;18.20;99625;;;;570696;251;24127;-82
2023/08/26 04:50:19;;;;;;;42.47;31.57;;;18.60;99.90;18.30;99628;;;;561474;251;23254;-77
2023/08/26 04:52:47;;;;;;;49.27;33.07;;;18.80;99.90;18.30;99626;;;;560214;251;23160;-76
2023/08/26 04:55:16;;;;;;;52.03;34.77;;;18.90;99.90;18.40;99626;;;;580978;246;24127;-79
2023/08/26 04:57:45;;;;;;;47.43;33.30;;;19.00;99.90;18.50;99625;;;;560567;251;24095;-78
2023/08/26 05:00:16;;;;;;;52.40;34.67;;;19.00;99.90;18.60;99634;;;;570209;251;24166;-80
2023/08/26 05:02:41;;;;;;;50.00;34.53;;;19.20;99.90;18.70;99649;;;;561972;251;23172;-79
2023/08/26 05:05:10;;;;;;;46.73;34.17;;;19.30;99.90;18.80;99655;;;;561794;251;24104;-76
2023/08/26 05:07:39;;;;;;;43.37;32.40;;;19.50;99.90;18.90;99652;;;;581960;244;24159;-78
2023/08/26 05:10:07;;;;;;;43.70;34.00;;;19.40;99.90;19.00;99653;;;;561523;251;24126;-77
2023/08/26 05:12:35;;;;;;;47.80;34.57;;;19.60;99.90;19.20;99657;;;;569991;251;24107;-78
2023/08/26 05:15:04;;;;;;;47.13;33.10;;;19.70;99.90;19.30;99644;;;;578197;248;24108;-78
2023/08/26 05:17:30;;;;;;;48.07;32.47;;;19.80;99.90;19.40;99652;;;;572316;246;23116;-78
2023/08/26 05:19:58;;;;;;;44.37;32.27;;;19.90;99.90;19.40;99646;;;;560195;251;23133;-78
2023/08/26 05:22:26;;;;;;;50.20;34.47;;;19.90;99.90;19.40;99640;;;;581127;246;24174;-80
2023/08/26 05:24:55;;;;;;;41.07;31.93;;;20.00;99.90;19.50;99641;;;;572042;246;24119;-78
2023/08/26 05:27:24;;;;;;;40.60;32.23;;;20.10;99.90;19.60;99647;;;;560202;251;24147;-81
2023/08/26 05:29:53;;;;;;;53.87;35.80;;;20.20;99.90;19.70;99649;;;;578252;246;23180;-80
2023/08/26 05:32:21;;;;;;;51.37;35.03;;;20.40;99.90;19.90;99650;;;;572507;246;23119;-81
2023/08/26 05:34:49;;;;;;;57.20;35.87;;;20.40;99.90;20.00;99644;;;;560423;251;24138;-76
2023/08/26 05:37:17;;;;;;;48.30;31.03;;;20.60;99.90;20.10;99641;;;;581345;246;24089;-85
2023/08/26 05:39:45;;;;;;;45.80;30.90;;;20.70;99.90;20.20;99646;;;;570468;251;24087;-77
2023/08/26 05:42:13;;;;;;;46.80;32.63;;;20.70;99.90;20.20;99648;;;;571045;251;24215;-79
2023/08/26 05:44:41;;;;;;;45.97;30.43;;;20.80;99.90;20.20;99654;;;;581151;243;24117;-79
2023/08/26 05:47:08;;;;;;;42.10;29.47;;;20.80;99.90;20.20;99655;;;;560887;251;24120;-79
2023/08/26 05:49:36;;;;;;;38.87;29.50;;;20.80;99.90;20.20;99658;;;;570749;251;24285;-77
2023/08/26 05:52:04;;;;;;;41.00;30.93;;;20.80;99.90;20.30;99665;;;;581133;246;24117;-80
2023/08/26 05:54:33;;;;;;;39.50;30.63;;;21.00;99.90;20.50;99668;;;;572374;246;24125;-79
2023/08/26 05:57:01;;;;;;;39.07;29.77;;;21.00;99.90;20.70;99667;;;;560305;251;24143;-81
2023/08/26 05:59:29;;;;;;;35.87;26.33;;;21.20;99.90;21.00;99667;;;;577547;246;24103;-78
2023/08/26 06:01:57;;;;;;;36.73;28.20;;;21.50;99.90;21.30;99665;;;;560583;251;24130;-79
2023/08/26 06:04:27;;;;;;;34.33;27.07;;;21.70;99.90;21.40;99660;;;;570296;248;24163;-76
2023/08/26 06:06:53;;;;;;;39.50;29.43;;;22.20;99.90;21.70;99666;;;;570121;251;24167;-76
2023/08/26 06:09:21;;;;;;;38.67;28.23;;;22.10;99.90;21.80;99667;;;;562034;251;24068;-80
2023/08/26 06:11:49;;;;;;;38.83;26.57;;;22.40;99.90;21.90;99667;;;;571806;246;24112;-79
2023/08/26 06:14:17;;;;;;;35.53;28.00;;;22.50;99.90;22.00;99667;;;;569898;251;23142;-76
2023/08/26 06:16:47;;;;;;;35.00;27.63;;;22.60;99.90;22.00;99659;;;;564302;251;24096;-77
2023/08/26 06:19:13;;;;;;;34.27;25.97;;;22.60;99.90;22.00;99653;;;;572304;248;24165;-82
2023/08/26 06:21:41;;;;;;;32.27;26.07;;;22.60;99.90;22.00;99657;;;;563175;250;23157;-76
2023/08/26 06:24:09;;;;;;;32.63;26.93;;;22.60;99.90;22.10;99653;;;;572747;246;23147;-75
2023/08/26 06:26:37;;;;;;;35.33;26.90;;;22.60;99.90;22.20;99664;;;;561370;247;24130;-77
2023/08/26 06:29:05;;;;;;;36.70;27.10;;;22.80;99.90;22.50;99661;;;;570947;251;24135;-76
2023/08/26 06:31:33;;;;;;;34.80;26.60;;;23.40;99.90;22.90;99663;;;;578748;246;24138;-79
2023/08/26 06:34:02;;;;;;;31.57;25.50;;;23.40;99.90;23.30;99664;;;;561748;251;24108;-76
2023/08/26 06:36:29;;;;;;;31.13;25.73;;;23.80;99.90;23.50;99661;;;;571257;251;23137;-76
2023/08/26 06:38:58;;;;;;;39.50;29.40;;;24.30;99.90;23.70;99660;;;;582273;246;24197;-80
2023/08/26 06:41:27;;;;;;;27.97;22.10;;;24.40;99.90;24.00;99660;;;;560257;251;23137;-81
2023/08/26 06:43:55;;;;;;;30.30;25.10;;;24.70;99.90;24.20;99652;;;;571067;248;24171;-77
2023/08/26 06:46:23;;;;;;;27.00;23.30;;;24.70;99.90;24.30;99657;;;;582481;246;23110;-75
2023/08/26 06:48:51;;;;;;;28.90;24.60;;;24.80;99.90;24.20;99655;;;;582580;246;24097;-76
2023/08/26 06:51:19;;;;;;;27.93;24.23;;;24.80;99.90;24.30;99660;;;;561889;251;23160;-80
2023/08/26 06:53:47;;;;;;;31.33;23.33;;;24.80;99.90;24.40;99662;;;;573682;246;23145;-76
2023/08/26 06:56:15;;;;;;;27.97;23.70;;;25.00;99.90;24.50;99670;;;;571033;248;23144;-77
2023/08/26 06:58:43;;;;;;;27.23;23.70;;;25.00;99.90;24.50;99676;;;;562357;251;24203;-76
2023/08/26 07:01:11;;;;;;;24.83;22.17;;;25.00;99.90;24.50;99671;;;;581353;246;23141;-85
2023/08/26 07:03:42;;;;;;;26.70;21.80;;;25.10;99.90;24.70;99674;;;;560977;251;23136;-85
2023/08/26 07:06:06;;;;;;;24.17;21.60;;;25.20;99.90;24.60;99668;;;;570275;251;23128;-78
2023/08/26 07:08:35;;;;;;;25.10;20.80;;;25.10;99.90;24.40;99676;;;;560236;251;23132;-79
2023/08/26 07:11:02;;;;;;;22.83;20.43;;;25.00;99.90;24.40;99676;;;;581062;246;23126;-75
2023/08/26 07:13:30;;;;;;;25.53;20.73;;;25.00;99.90;24.30;99672;;;;561007;251;24103;-81
2023/08/26 07:15:58;;;;;;;22.70;18.60;;;24.90;99.90;24.40;99674;;;;570618;251;24121;-85
2023/08/26 07:18:26;;;;;;;21.27;17.87;;;24.90;99.90;24.30;99670;;;;581085;243;23081;-77
2023/08/26 07:20:54;;;;;;;20.47;18.23;;;24.90;99.90;24.20;99672;;;;572190;246;23092;-78
2023/08/26 07:23:22;;;;;;;18.63;16.50;;;24.80;99.90;24.40;99678;;;;560227;251;24103;-80
2023/08/26 07:25:50;;;;;;;19.47;16.77;;;24.90;99.90;24.70;99688;;;;581088;246;23156;-79
2023/08/26 07:28:18;;;;;;;19.53;15.43;;;25.10;99.90;25.40;99688;;;;570195;248;24181;-77
2023/08/26 07:30:46;;;;;;;16.47;14.83;;;25.70;99.90;26.90;99695;;;;572457;246;23133;-82
2023/08/26 07:33:14;;;;;;;17.60;14.20;;;27.00;99.90;28.00;99691;;;;579266;246;23119;-83
2023/08/26 07:35:41;;;;;;;14.90;13.32;;;28.30;99.90;28.90;99695;;;;570586;247;23144;-77
2023/08/26 07:38:10;;;;;;;16.58;13.45;;;30.50;99.90;30.30;99706;;;;571123;251;23120;-77
2023/08/26 07:40:39;;;;;;;14.48;13.07;;;31.90;99.90;31.60;99697;;;;581344;246;23140;-77
2023/08/26 07:43:08;;;;;;;14.57;13.05;;;32.30;99.90;31.80;99703;;;;561909;251;23134;-76
2023/08/26 07:45:36;;;;;;;16.02;13.50;;;32.50;99.90;31.90;99711;;;;562424;251;23116;-76
2023/08/26 07:48:05;;;;;;;12.93;11.63;;;32.80;99.90;32.20;99709;;;;572859;246;24165;-75
2023/08/26 07:50:33;;;;;;;13.73;12.32;;;32.70;99.90;32.90;99716;;;;561018;251;23109;-76
2023/08/26 07:53:01;;;;;;;15.50;12.80;;;33.40;99.90;33.20;99717;;;;570555;249;23179;-76
2023/08/26 07:55:29;;;;;;;15.23;12.23;;;33.80;99.90;33.90;99718;;;;581030;246;24156;-76
2023/08/26 07:57:57;;;;;;;14.68;13.18;;;34.30;99.90;35.00;99729;;;;567127;246;35338;-77
2023/08/26 08:00:24;;;;;;;16.00;13.18;;;35.30;99.10;35.70;99721;;;;560204;251;23160;-80
2023/08/26 08:02:55;;;;;;;12.80;11.60;;;36.10;97.30;37.20;99724;;;;572661;246;23213;-78
2023/08/26 08:05:20;;;;;;;13.00;11.70;;;37.40;95.60;39.30;99722;;;;572405;246;23129;-78
2023/08/26 08:07:48;;;;;;;13.80;12.35;;;39.30;91.20;40.80;99719;;;;560275;251;23125;-78
2023/08/26 08:10:16;;;;;;;13.38;12.30;;;40.90;82.60;41.80;99713;;;;581032;246;23089;-79
2023/08/26 08:12:44;;;;;;;15.23;13.62;;;42.00;75.60;42.20;99716;;;;572224;246;23129;-82
2023/08/26 08:15:12;;;;;;;15.82;13.07;;;42.60;69.70;41.20;99726;;;;560299;251;23117;-77
2023/08/26 08:17:40;;;;;;;14.43;12.98;;;42.20;67.20;40.00;99720;;;;581015;246;23126;-79
2023/08/26 08:20:08;;;;;;;13.20;12.00;;;41.30;67.80;38.80;99724;;;;570098;246;24168;-79
2023/08/26 08:22:43;;;;;;;13.98;12.57;;;40.20;69.40;37.80;99727;;;;569633;251;23162;-79
2023/08/26 08:25:09;;;;;;;14.15;12.77;;;39.10;71.30;37.10;99730;;;;569919;251;23122;-82
2023/08/26 08:27:36;;;;;;;15.40;13.18;;;38.10;73.40;36.60;99723;;;;571917;246;23140;-76
2023/08/26 08:30:04;;;;;;;16.15;14.63;;;37.10;76.00;36.30;99720;;;;560202;251;23142;-77
2023/08/26 08:32:32;;;;;;;15.70;14.30;;;36.80;77.40;36.10;99724;;;;580878;243;23104;-79
2023/08/26 08:35:00;;;;;;;15.52;13.80;;;36.80;77.40;36.00;99724;;;;570205;246;23132;-77
2023/08/26 08:37:28;;;;;;;16.37;14.50;;;36.60;78.20;36.00;99727;;;;564297;251;23207;-82
2023/08/26 08:39:56;;;;;;;15.30;14.10;;;36.50;78.70;36.10;99726;;;;580589;243;23122;-79
2023/08/26 08:42:28;;;;;;;15.27;13.77;;;36.50;78.70;36.50;99727;;;;571347;248;23117;-78
2023/08/26 08:44:51;;;;;;;15.30;13.55;;;36.80;78.90;37.90;99727;;;;568831;247;23143;-76
2023/08/26 08:47:24;;;;;;;15.10;13.60;;;38.00;78.00;39.90;99721;;;;570709;248;23167;-81
2023/08/26 08:49:48;;;;;;;13.75;12.48;;;41.60;69.00;41.60;99736;;;;559955;251;23200;-81
2023/08/26 08:52:19;;;;;;;13.90;12.63;;;41.50;68.90;43.10;99741;;;;559954;252;23110;-79
2023/08/26 08:54:47;;;;;;;14.77;13.27;;;43.10;65.00;43.70;99737;;;;581037;243;23086;-79
2023/08/26 08:57:13;;;;;;;14.20;12.85;;;44.90;59.40;44.30;99730;;;;570648;251;23183;-79
2023/08/26 08:59:43;;;;;;;14.70;13.40;;;44.90;58.70;45.30;99724;;;;557301;251;35494;-77
2023/08/26 09:02:08;;;;;;;13.62;12.43;;;45.90;56.00;46.10;99734;;;;566902;246;35468;-78
2023/08/26 09:04:36;;;;;;;12.98;11.88;;;46.80;54.30;46.90;99732;;;;565325;251;35437;-81
2023/08/26 09:07:04;;;;;;;13.18;11.85;;;47.70;53.10;47.40;99723;;;;570859;251;23118;-78
2023/08/26 09:09:32;;;;;;;12.45;11.45;;;48.30;52.10;47.60;99729;;;;572456;246;23123;-79
2023/08/26 09:12:00;;;;;;;12.73;11.73;;;48.70;49.60;46.70;99737;;;;570369;251;23155;-77
2023/08/26 09:14:28;;;;;;;11.85;10.48;;;48.20;50.10;46.00;99741;;;;569819;248;23140;-78
2023/08/26 09:16:56;;;;;;;12.02;11.02;;;47.50;51.10;45.70;99741;;;;577895;248;23145;-78
2023/08/26 09:19:24;;;;;;;12.57;11.52;;;47.10;51.30;45.20;99739;;;;561599;251;23105;-79
2023/08/26 09:21:52;;;;;;;12.37;11.20;;;46.60;52.00;44.60;99733;;;;570482;251;23150;-77
2023/08/26 09:24:20;;;;;;;11.98;11.12;;;45.90;52.50;43.70;99744;;;;572173;246;23133;-79
2023/08/26 09:27:00;;;;;;;14.77;11.27;;;45.10;52.50;42.60;99747;;;;563808;250;23171;-78
2023/08/26 09:29:31;;;;;;;12.93;11.68;;;44.10;54.40;41.70;99748;;;;555330;251;35433;-77
2023/08/26 09:31:59;;;;;;;11.93;10.82;;;43.10;55.40;41.00;99746;;;;572085;246;23115;-78
2023/08/26 09:34:29;;;;;;;12.00;10.90;;;42.30;56.70;40.60;99743;;;;561354;251;23194;-76
2023/08/26 09:36:54;;;;;;;10.98;10.07;;;41.70;57.70;40.00;99748;;;;570164;251;23140;-77
2023/08/26 09:39:22;;;;;;;10.68;9.75;;;41.00;58.50;39.50;99745;;;;561187;251;23141;-78
2023/08/26 09:41:53;;;;;;;11.98;10.35;;;40.50;59.50;39.00;99755;;;;571958;246;23128;-79
2023/08/26 09:44:22;;;;;;;12.07;11.07;;;40.00;60.40;38.20;99754;;;;559131;251;23152;-78
2023/08/26 09:46:49;;;;;;;12.02;10.88;;;39.20;62.10;37.50;99755;;;;570077;251;23218;-78
2023/08/26 09:49:14;;;;;;;11.32;10.35;;;38.50;63.40;36.80;99756;;;;571825;246;23133;-77
2023/08/26 09:51:51;;;;;;;12.45;11.18;;;37.70;65.70;36.10;99753;;;;561121;251;23167;-77
2023/08/26 09:54:16;;;;;;;12.18;10.68;;;37.00;67.80;35.40;99762;;;;562972;250;24140;-79
2023/08/26 09:56:44;;;;;;;13.32;10.48;;;36.10;69.60;35.10;99755;;;;569337;246;23135;-76
2023/08/26 09:59:14;;;;;;;10.65;9.82;;;35.70;71.40;35.00;99745;;;;565182;251;23173;-77
2023/08/26 10:01:43;;;;;;;11.38;10.40;;;35.40;72.90;34.60;99751;;;;561847;251;23138;-77
2023/08/26 10:04:11;;;;;;;11.18;10.27;;;35.10;73.70;34.20;99750;;;;558278;252;23154;-78
2023/08/26 10:06:44;;;;;;;11.25;10.20;;;34.70;75.10;33.90;99754;;;;570101;251;23137;-81
2023/08/26 10:09:37;;;;;;;12.55;9.98;;;34.40;76.90;33.60;99755;;;;562475;251;23184;-76
2023/08/26 10:12:05;;;;;;;11.52;10.27;;;34.10;78.30;33.20;99751;;;;571353;246;23406;-78
2023/08/26 10:14:33;;;;;;;11.20;10.20;;;33.70;79.90;32.70;99745;;;;561892;251;23115;-78
2023/08/26 10:17:02;;;;;;;11.02;10.10;;;32.80;83.00;32.40;99745;;;;562336;251;24166;-82
2023/08/26 10:19:33;;;;;;;11.45;10.27;;;32.50;84.40;32.10;99741;;;;581264;246;23101;-79
2023/08/26 10:21:58;;;;;;;10.40;9.57;;;32.40;84.30;31.70;99739;;;;562182;251;24157;-83
2023/08/26 10:24:29;;;;;;;10.65;9.65;;;32.10;86.00;31.30;99740;;;;561691;251;23178;-82
2023/08/26 10:26:54;;;;;;;10.85;9.95;;;31.80;88.00;31.00;99737;;;;560284;251;24147;-85
2023/08/26 10:29:25;;;;;;;9.77;8.98;;;31.40;89.00;30.70;99730;;;;581087;243;23144;-82
2023/08/26 10:31:50;;;;;;;10.23;9.07;;;31.10;90.30;30.50;99735;;;;559386;251;23149;-77
2023/08/26 10:34:18;;;;;;;10.85;9.88;;;30.80;90.90;30.20;99735;;;;561223;251;23159;-81
2023/08/26 10:36:49;;;;;;;9.98;9.02;;;30.60;91.40;30.00;99729;;;;577575;248;23169;-83
2023/08/26 10:39:20;;;;;;;9.13;8.43;;;30.30;91.70;29.70;99736;;;;564001;251;24159;-78
2023/08/26 10:42:16;;;;;;;10.00;9.10;;;30.00;92.00;29.40;99734;;;;564449;251;24173;-77
2023/08/26 10:44:43;;;;;;;9.70;8.82;;;29.40;93.40;29.00;99743;;;;572735;246;23150;-76
2023/08/26 10:47:12;;;;;;;8.85;8.05;;;29.10;94.30;28.70;99742;;;;564153;251;24190;-81
2023/08/26 10:49:40;;;;;;;9.55;8.65;;;29.00;94.20;28.60;99749;;;;561167;251;23175;-83
2023/08/26 10:52:16;;;;;;;9.75;9.05;;;28.90;95.00;28.40;99745;;;;571192;246;23168;-83
2023/08/26 10:54:47;;;;;;;9.43;8.32;;;28.70;95.80;28.20;99750;;;;570756;251;24139;-83
2023/08/26 10:57:12;;;;;;;10.55;9.63;;;28.60;96.70;28.20;99748;;;;565320;248;35500;-81
2023/08/26 10:59:43;;;;;;;9.65;8.68;;;28.50;97.90;28.10;99745;;;;572319;246;24155;-77
2023/08/26 11:02:14;;;;;;;8.60;7.90;;;28.40;98.30;28.00;99745;;;;570645;251;23127;-76
2023/08/26 11:04:45;;;;;;;8.93;8.15;;;28.40;98.50;28.00;99751;;;;573189;246;23129;-81
2023/08/26 11:07:23;;;;;;;9.60;8.80;;;28.30;98.90;27.90;99758;;;;576697;246;35427;-78